sensor_id;sensor_type;location;lat;lon;timestamp;pressure;altitude;pressure_sealevel;temperature;humidity
13033;BME280;6583;42.632;23.298;2023-05-12T00:01:23;70833.94;;;-146.40;80.34
13033;BME280;6583;42.632;23.298;2023-05-12T00:03:50;70833.94;;;-146.40;79.40
13033;BME280;6583;42.632;23.298;2023-05-12T00:06:19;70831.91;;;-146.40;82.09
13033;BME280;6583;42.632;23.298;2023-05-12T00:08:45;70848.09;;;-146.40;80.87
13033;BME280;6583;42.632;23.298;2023-05-12T00:11:12;70838.00;;;-146.40;81.45
13033;BME280;6583;42.632;23.298;2023-05-12T00:13:39;70835.97;;;-146.40;82.01
13033;BME280;6583;42.632;23.298;2023-05-12T00:16:06;70821.81;;;-146.40;82.30
13033;BME280;6583;42.632;23.298;2023-05-12T00:18:33;70821.81;;;-146.40;82.78
13033;BME280;6583;42.632;23.298;2023-05-12T00:20:59;70809.66;;;-146.40;83.15
13033;BME280;6583;42.632;23.298;2023-05-12T00:23:27;70809.66;;;-146.40;82.64
13033;BME280;6583;42.632;23.298;2023-05-12T00:25:54;70797.53;;;-146.40;83.06
13033;BME280;6583;42.632;23.298;2023-05-12T00:28:21;70789.44;;;-146.40;83.01
13033;BME280;6583;42.632;23.298;2023-05-12T00:30:47;70785.38;;;-146.40;81.91
13033;BME280;6583;42.632;23.298;2023-05-12T00:33:14;70773.25;;;-146.40;82.49
13033;BME280;6583;42.632;23.298;2023-05-12T00:35:41;70769.19;;;-146.40;82.39
13033;BME280;6583;42.632;23.298;2023-05-12T00:38:09;70759.06;;;-146.40;81.58
13033;BME280;6583;42.632;23.298;2023-05-12T00:40:38;70765.16;;;-146.40;83.37
13033;BME280;6583;42.632;23.298;2023-05-12T00:43:05;70769.19;;;-146.40;82.42
13033;BME280;6583;42.632;23.298;2023-05-12T00:45:31;70771.22;;;-146.40;82.19
13033;BME280;6583;42.632;23.298;2023-05-12T00:47:58;70773.25;;;-146.40;82.25
13033;BME280;6583;42.632;23.298;2023-05-12T00:50:25;70793.47;;;-146.40;81.36
13033;BME280;6583;42.632;23.298;2023-05-12T00:52:52;70797.53;;;-146.40;81.88
13033;BME280;6583;42.632;23.298;2023-05-12T00:55:18;70821.81;;;-146.40;83.16
13033;BME280;6583;42.632;23.298;2023-05-12T00:57:47;70833.94;;;-146.40;83.65
13033;BME280;6583;42.632;23.298;2023-05-12T01:00:14;70842.03;;;-146.40;83.28
13033;BME280;6583;42.632;23.298;2023-05-12T01:02:40;70866.31;;;-146.40;84.34
13033;BME280;6583;42.632;23.298;2023-05-12T01:05:08;70862.28;;;-146.40;85.18
13033;BME280;6583;42.632;23.298;2023-05-12T01:07:35;70866.31;;;-146.40;84.58
13033;BME280;6583;42.632;23.298;2023-05-12T01:10:15;70864.28;;;-146.40;85.12
13033;BME280;6583;42.632;23.298;2023-05-12T01:12:42;70884.53;;;-146.40;86.95
13033;BME280;6583;42.632;23.298;2023-05-12T01:15:10;70874.41;;;-146.40;87.23
13033;BME280;6583;42.632;23.298;2023-05-12T01:17:39;70874.41;;;-146.40;86.98
13033;BME280;6583;42.632;23.298;2023-05-12T01:20:08;70890.59;;;-146.40;86.25
13033;BME280;6583;42.632;23.298;2023-05-12T01:22:36;70886.56;;;-146.40;87.42
13033;BME280;6583;42.632;23.298;2023-05-12T01:25:07;70890.59;;;-146.40;88.48
13033;BME280;6583;42.632;23.298;2023-05-12T01:27:38;70900.72;;;-146.40;87.48
13033;BME280;6583;42.632;23.298;2023-05-12T01:30:06;70914.88;;;-146.40;88.13
13033;BME280;6583;42.632;23.298;2023-05-12T01:32:34;70910.84;;;-146.40;89.06
13033;BME280;6583;42.632;23.298;2023-05-12T01:35:01;70896.66;;;-146.40;89.41
13033;BME280;6583;42.632;23.298;2023-05-12T01:37:30;70882.50;;;-146.40;88.68
13033;BME280;6583;42.632;23.298;2023-05-12T01:39:56;70874.41;;;-146.40;88.57
13033;BME280;6583;42.632;23.298;2023-05-12T01:42:23;70876.44;;;-146.40;87.76
13033;BME280;6583;42.632;23.298;2023-05-12T01:44:51;70870.38;;;-146.40;86.42
13033;BME280;6583;42.632;23.298;2023-05-12T01:47:18;70890.59;;;-146.40;85.97
13033;BME280;6583;42.632;23.298;2023-05-12T01:49:45;70908.81;;;-146.40;86.63
13033;BME280;6583;42.632;23.298;2023-05-12T01:52:12;70914.88;;;-146.40;87.49
13033;BME280;6583;42.632;23.298;2023-05-12T01:54:39;70910.84;;;-146.40;87.80
13033;BME280;6583;42.632;23.298;2023-05-12T01:57:05;70900.72;;;-146.40;87.85
13033;BME280;6583;42.632;23.298;2023-05-12T01:59:32;70902.75;;;-146.40;87.91
13033;BME280;6583;42.632;23.298;2023-05-12T02:02:00;70912.84;;;-146.40;87.69
13033;BME280;6583;42.632;23.298;2023-05-12T02:04:26;70939.16;;;-146.40;87.71
13033;BME280;6583;42.632;23.298;2023-05-12T02:06:53;70941.19;;;-146.40;88.96
13033;BME280;6583;42.632;23.298;2023-05-12T02:09:20;70939.16;;;-146.40;89.71
13033;BME280;6583;42.632;23.298;2023-05-12T02:11:47;70931.06;;;-146.40;89.77
13033;BME280;6583;42.632;23.298;2023-05-12T02:14:14;70955.34;;;-146.40;89.66
13033;BME280;6583;42.632;23.298;2023-05-12T02:16:40;70973.56;;;-146.40;89.42
13033;BME280;6583;42.632;23.298;2023-05-12T02:19:08;70973.56;;;-146.40;90.05
13033;BME280;6583;42.632;23.298;2023-05-12T02:21:35;70987.72;;;-146.40;90.62
13033;BME280;6583;42.632;23.298;2023-05-12T02:24:02;71005.94;;;-146.40;91.65
13033;BME280;6583;42.632;23.298;2023-05-12T02:26:28;71012.00;;;-146.40;91.75
13033;BME280;6583;42.632;23.298;2023-05-12T02:28:55;71036.28;;;-146.40;91.73
13033;BME280;6583;42.632;23.298;2023-05-12T02:31:21;71042.34;;;-146.40;93.15
13033;BME280;6583;42.632;23.298;2023-05-12T02:33:48;71070.69;;;-146.40;93.91
13033;BME280;6583;42.632;23.298;2023-05-12T02:36:17;71058.53;;;-146.40;95.09
13033;BME280;6583;42.632;23.298;2023-05-12T02:38:43;71052.47;;;-146.40;95.23
13033;BME280;6583;42.632;23.298;2023-05-12T02:41:10;71066.63;;;-146.40;95.66
13033;BME280;6583;42.632;23.298;2023-05-12T02:43:37;71064.63;;;-146.40;96.27
13033;BME280;6583;42.632;23.298;2023-05-12T02:46:04;71068.66;;;-146.40;96.40
13033;BME280;6583;42.632;23.298;2023-05-12T02:48:30;71064.63;;;-146.40;95.91
13033;BME280;6583;42.632;23.298;2023-05-12T02:50:57;71060.56;;;-146.40;96.45
13033;BME280;6583;42.632;23.298;2023-05-12T02:53:25;71060.56;;;-146.40;95.73
13033;BME280;6583;42.632;23.298;2023-05-12T02:55:52;71064.63;;;-146.40;94.50
13033;BME280;6583;42.632;23.298;2023-05-12T02:58:19;71056.53;;;-146.40;95.94
13033;BME280;6583;42.632;23.298;2023-05-12T03:00:46;71048.44;;;-146.40;96.31
13033;BME280;6583;42.632;23.298;2023-05-12T03:03:12;71032.25;;;-146.40;96.41
13033;BME280;6583;42.632;23.298;2023-05-12T03:05:39;71024.16;;;-146.40;94.42
13033;BME280;6583;42.632;23.298;2023-05-12T03:08:06;71044.38;;;-146.40;92.90
13033;BME280;6583;42.632;23.298;2023-05-12T03:10:34;71034.25;;;-146.40;93.48
13033;BME280;6583;42.632;23.298;2023-05-12T03:13:02;71026.16;;;-146.40;94.27
13033;BME280;6583;42.632;23.298;2023-05-12T03:15:28;71024.16;;;-146.40;93.60
13033;BME280;6583;42.632;23.298;2023-05-12T03:17:55;71032.25;;;-146.40;93.07
13033;BME280;6583;42.632;23.298;2023-05-12T03:20:22;71020.09;;;-146.40;93.10
13033;BME280;6583;42.632;23.298;2023-05-12T03:22:49;71016.06;;;-146.40;93.12
13033;BME280;6583;42.632;23.298;2023-05-12T03:25:15;71007.97;;;-146.40;93.00
13033;BME280;6583;42.632;23.298;2023-05-12T03:27:43;70995.81;;;-146.40;92.22
13033;BME280;6583;42.632;23.298;2023-05-12T03:30:11;70993.78;;;-146.40;90.05
13033;BME280;6583;42.632;23.298;2023-05-12T03:32:38;70993.78;;;-146.40;90.14
13033;BME280;6583;42.632;23.298;2023-05-12T03:35:05;70997.84;;;-146.40;90.88
13033;BME280;6583;42.632;23.298;2023-05-12T03:37:32;71007.97;;;-146.40;90.52
13033;BME280;6583;42.632;23.298;2023-05-12T03:39:58;71007.97;;;-146.40;91.07
13033;BME280;6583;42.632;23.298;2023-05-12T03:42:25;71026.16;;;-146.40;90.39
13033;BME280;6583;42.632;23.298;2023-05-12T03:44:53;71009.97;;;-146.40;90.91
13033;BME280;6583;42.632;23.298;2023-05-12T03:47:20;71005.94;;;-146.40;91.44
13033;BME280;6583;42.632;23.298;2023-05-12T03:49:47;71003.91;;;-146.40;91.04
13033;BME280;6583;42.632;23.298;2023-05-12T03:52:13;71001.88;;;-146.40;91.91
13033;BME280;6583;42.632;23.298;2023-05-12T03:54:40;70997.84;;;-146.40;91.56
13033;BME280;6583;42.632;23.298;2023-05-12T03:57:06;70999.88;;;-146.40;90.50
13033;BME280;6583;42.632;23.298;2023-05-12T03:59:33;70995.81;;;-146.40;90.93
13033;BME280;6583;42.632;23.298;2023-05-12T04:02:01;71007.97;;;-146.40;90.33
13033;BME280;6583;42.632;23.298;2023-05-12T04:04:28;71016.06;;;-146.40;90.11
13033;BME280;6583;42.632;23.298;2023-05-12T04:06:55;71014.03;;;-146.40;90.53
13033;BME280;6583;42.632;23.298;2023-05-12T04:09:21;71036.28;;;-146.40;90.51
13033;BME280;6583;42.632;23.298;2023-05-12T04:11:48;71046.41;;;-146.40;90.87
13033;BME280;6583;42.632;23.298;2023-05-12T04:14:15;71032.25;;;-146.40;91.52
13033;BME280;6583;42.632;23.298;2023-05-12T04:16:42;71020.09;;;-146.40;91.52
13033;BME280;6583;42.632;23.298;2023-05-12T04:19:10;71024.16;;;-146.40;91.68
13033;BME280;6583;42.632;23.298;2023-05-12T04:21:37;71007.97;;;-146.40;91.88
13033;BME280;6583;42.632;23.298;2023-05-12T04:24:04;70995.81;;;-146.40;91.70
13033;BME280;6583;42.632;23.298;2023-05-12T04:26:31;71003.91;;;-146.40;90.92
13033;BME280;6583;42.632;23.298;2023-05-12T04:28:57;71001.88;;;-146.40;89.89
13033;BME280;6583;42.632;23.298;2023-05-12T04:31:24;71014.03;;;-146.40;90.39
13033;BME280;6583;42.632;23.298;2023-05-12T04:33:51;71020.09;;;-146.40;90.18
13033;BME280;6583;42.632;23.298;2023-05-12T04:36:20;71030.22;;;-146.40;91.01
13033;BME280;6583;42.632;23.298;2023-05-12T04:38:47;71050.44;;;-146.40;91.62
13033;BME280;6583;42.632;23.298;2023-05-12T04:41:14;71060.56;;;-146.40;92.60
13033;BME280;6583;42.632;23.298;2023-05-12T04:43:41;71062.59;;;-146.40;93.46
13033;BME280;6583;42.632;23.298;2023-05-12T04:46:07;71056.53;;;-146.40;93.45
13033;BME280;6583;42.632;23.298;2023-05-12T04:48:34;71062.59;;;-146.40;94.25
13033;BME280;6583;42.632;23.298;2023-05-12T04:51:06;71058.53;;;-146.40;94.50
13033;BME280;6583;42.632;23.298;2023-05-12T04:53:34;71052.47;;;-146.40;93.58
13033;BME280;6583;42.632;23.298;2023-05-12T04:56:01;71048.44;;;-146.40;94.32
13033;BME280;6583;42.632;23.298;2023-05-12T04:58:27;71042.34;;;-146.40;94.39
13033;BME280;6583;42.632;23.298;2023-05-12T05:00:54;71040.34;;;-146.40;93.73
13033;BME280;6583;42.632;23.298;2023-05-12T05:03:21;71036.28;;;-146.40;93.81
13033;BME280;6583;42.632;23.298;2023-05-12T05:05:47;71056.53;;;-146.40;92.54
13033;BME280;6583;42.632;23.298;2023-05-12T05:08:14;71076.75;;;-146.40;93.81
13033;BME280;6583;42.632;23.298;2023-05-12T05:10:42;71072.72;;;-146.40;93.66
13033;BME280;6583;42.632;23.298;2023-05-12T05:13:09;71064.63;;;-146.40;94.14
13033;BME280;6583;42.632;23.298;2023-05-12T05:15:35;71056.53;;;-146.40;94.21
13033;BME280;6583;42.632;23.298;2023-05-12T05:18:02;71058.53;;;-146.40;93.52
13033;BME280;6583;42.632;23.298;2023-05-12T05:20:30;71058.53;;;-146.40;93.69
13033;BME280;6583;42.632;23.298;2023-05-12T05:22:58;71074.72;;;-146.40;94.04
13033;BME280;6583;42.632;23.298;2023-05-12T05:25:25;71086.88;;;-146.40;94.29
13033;BME280;6583;42.632;23.298;2023-05-12T05:27:54;71109.13;;;-146.40;94.73
13033;BME280;6583;42.632;23.298;2023-05-12T05:30:21;71109.13;;;-146.40;95.22
13033;BME280;6583;42.632;23.298;2023-05-12T05:32:47;71094.97;;;-146.40;95.94
13033;BME280;6583;42.632;23.298;2023-05-12T05:35:14;71092.94;;;-146.40;96.66
13033;BME280;6583;42.632;23.298;2023-05-12T05:37:41;71099.00;;;-146.40;96.24
13033;BME280;6583;42.632;23.298;2023-05-12T05:40:08;71084.84;;;-146.40;95.41
13033;BME280;6583;42.632;23.298;2023-05-12T05:42:35;71076.75;;;-146.40;95.88
13033;BME280;6583;42.632;23.298;2023-05-12T05:45:04;71074.72;;;-146.40;96.79
13033;BME280;6583;42.632;23.298;2023-05-12T05:47:30;71068.66;;;-146.40;96.13
13033;BME280;6583;42.632;23.298;2023-05-12T05:49:58;71058.53;;;-146.40;94.81
13033;BME280;6583;42.632;23.298;2023-05-12T05:52:25;71056.53;;;-146.40;94.46
13033;BME280;6583;42.632;23.298;2023-05-12T05:54:51;71056.53;;;-146.40;94.64
13033;BME280;6583;42.632;23.298;2023-05-12T05:57:18;71052.47;;;-146.40;94.29
13033;BME280;6583;42.632;23.298;2023-05-12T05:59:45;71072.72;;;-146.40;93.73
13033;BME280;6583;42.632;23.298;2023-05-12T06:02:13;71066.63;;;-146.40;94.24
13033;BME280;6583;42.632;23.298;2023-05-12T06:04:40;71084.84;;;-146.40;94.43
13033;BME280;6583;42.632;23.298;2023-05-12T06:07:07;71092.94;;;-146.40;94.78
13033;BME280;6583;42.632;23.298;2023-05-12T06:09:34;71097.00;;;-146.40;95.11
13033;BME280;6583;42.632;23.298;2023-05-12T06:12:00;71097.00;;;-146.40;95.44
13033;BME280;6583;42.632;23.298;2023-05-12T06:14:27;71088.91;;;-146.40;95.97
13033;BME280;6583;42.632;23.298;2023-05-12T06:16:54;71090.91;;;-146.40;95.87
13033;BME280;6583;42.632;23.298;2023-05-12T06:19:22;71084.84;;;-146.40;95.65
13033;BME280;6583;42.632;23.298;2023-05-12T06:21:48;71082.81;;;-146.40;95.18
13033;BME280;6583;42.632;23.298;2023-05-12T06:24:16;71088.91;;;-146.40;95.66
13033;BME280;6583;42.632;23.298;2023-05-12T06:26:42;71088.91;;;-146.40;95.88
13033;BME280;6583;42.632;23.298;2023-05-12T06:29:09;71080.81;;;-146.40;95.97
13033;BME280;6583;42.632;23.298;2023-05-12T06:31:36;71070.69;;;-146.40;97.09
13033;BME280;6583;42.632;23.298;2023-05-12T06:34:02;71056.53;;;-146.40;97.18
13033;BME280;6583;42.632;23.298;2023-05-12T06:36:30;71074.72;;;-146.40;95.84
13033;BME280;6583;42.632;23.298;2023-05-12T06:38:57;71078.78;;;-146.40;94.37
13033;BME280;6583;42.632;23.298;2023-05-12T06:41:24;71097.00;;;-146.40;95.25
13033;BME280;6583;42.632;23.298;2023-05-12T06:43:51;71109.13;;;-146.40;94.84
13033;BME280;6583;42.632;23.298;2023-05-12T06:46:17;71105.09;;;-146.40;95.52
13033;BME280;6583;42.632;23.298;2023-05-12T06:48:44;71107.13;;;-146.40;94.81
13033;BME280;6583;42.632;23.298;2023-05-12T06:51:11;71113.19;;;-146.40;95.39
13033;BME280;6583;42.632;23.298;2023-05-12T06:53:39;71113.19;;;-146.40;95.94
13033;BME280;6583;42.632;23.298;2023-05-12T06:56:06;71105.09;;;-146.40;96.50
13033;BME280;6583;42.632;23.298;2023-05-12T06:58:33;71111.16;;;-146.40;97.09
13033;BME280;6583;42.632;23.298;2023-05-12T07:01:00;71090.91;;;-146.40;97.42
13033;BME280;6583;42.632;23.298;2023-05-12T07:03:30;71080.81;;;-146.40;97.04
13033;BME280;6583;42.632;23.298;2023-05-12T07:05:56;71084.84;;;-146.40;96.43
13033;BME280;6583;42.632;23.298;2023-05-12T07:08:23;71101.03;;;-146.40;96.94
13033;BME280;6583;42.632;23.298;2023-05-12T07:10:51;71101.03;;;-146.40;97.53
13033;BME280;6583;42.632;23.298;2023-05-12T07:13:18;71113.19;;;-146.40;98.33
13033;BME280;6583;42.632;23.298;2023-05-12T07:15:44;71101.03;;;-146.40;97.43
13033;BME280;6583;42.632;23.298;2023-05-12T07:18:11;71092.94;;;-146.40;97.43
13033;BME280;6583;42.632;23.298;2023-05-12T07:20:38;71084.84;;;-146.40;96.77
13033;BME280;6583;42.632;23.298;2023-05-12T07:23:04;71076.75;;;-146.40;96.01
13033;BME280;6583;42.632;23.298;2023-05-12T07:25:31;71072.72;;;-146.40;95.58
13033;BME280;6583;42.632;23.298;2023-05-12T07:27:59;71072.72;;;-146.40;95.42
13033;BME280;6583;42.632;23.298;2023-05-12T07:30:25;71064.63;;;-146.40;95.81
13033;BME280;6583;42.632;23.298;2023-05-12T07:32:52;71064.63;;;-146.40;96.58
13033;BME280;6583;42.632;23.298;2023-05-12T07:35:19;71058.53;;;-146.40;95.39
13033;BME280;6583;42.632;23.298;2023-05-12T07:37:46;71072.72;;;-146.40;94.46
13033;BME280;6583;42.632;23.298;2023-05-12T07:40:13;71066.63;;;-146.40;94.70
13033;BME280;6583;42.632;23.298;2023-05-12T07:42:39;71052.47;;;-146.40;95.79
13033;BME280;6583;42.632;23.298;2023-05-12T07:45:08;71052.47;;;-146.40;95.25
13033;BME280;6583;42.632;23.298;2023-05-12T07:47:35;71064.63;;;-146.40;93.55
13033;BME280;6583;42.632;23.298;2023-05-12T07:50:01;71060.56;;;-146.40;93.91
13033;BME280;6583;42.632;23.298;2023-05-12T07:52:28;71056.53;;;-146.40;93.81
13033;BME280;6583;42.632;23.298;2023-05-12T07:54:55;71066.63;;;-146.40;92.76
13033;BME280;6583;42.632;23.298;2023-05-12T07:57:22;71072.72;;;-146.40;93.70
13033;BME280;6583;42.632;23.298;2023-05-12T07:59:48;71056.53;;;-146.40;94.42
13033;BME280;6583;42.632;23.298;2023-05-12T08:02:16;71042.34;;;-146.40;94.51
13033;BME280;6583;42.632;23.298;2023-05-12T08:04:44;71036.28;;;-146.40;93.52
13033;BME280;6583;42.632;23.298;2023-05-12T08:07:11;71036.28;;;-146.40;92.96
13033;BME280;6583;42.632;23.298;2023-05-12T08:09:38;71020.09;;;-146.40;94.17
13033;BME280;6583;42.632;23.298;2023-05-12T08:12:05;71009.97;;;-146.40;94.62
13033;BME280;6583;42.632;23.298;2023-05-12T08:14:31;71007.97;;;-146.40;92.43
13033;BME280;6583;42.632;23.298;2023-05-12T08:16:58;71024.16;;;-146.40;91.89
13033;BME280;6583;42.632;23.298;2023-05-12T08:19:26;71012.00;;;-146.40;93.20
13033;BME280;6583;42.632;23.298;2023-05-12T08:21:53;70997.84;;;-146.40;93.97
13033;BME280;6583;42.632;23.298;2023-05-12T08:24:19;71005.94;;;-146.40;92.23
13033;BME280;6583;42.632;23.298;2023-05-12T08:26:46;70999.88;;;-146.40;93.31
13033;BME280;6583;42.632;23.298;2023-05-12T08:29:13;70997.84;;;-146.40;91.45
13033;BME280;6583;42.632;23.298;2023-05-12T08:31:41;70993.78;;;-146.40;91.47
13033;BME280;6583;42.632;23.298;2023-05-12T08:34:07;70993.78;;;-146.40;91.71
13033;BME280;6583;42.632;23.298;2023-05-12T08:36:35;70995.81;;;-146.40;91.52
13033;BME280;6583;42.632;23.298;2023-05-12T08:39:02;70991.78;;;-146.40;91.50
13033;BME280;6583;42.632;23.298;2023-05-12T08:41:38;70979.63;;;-146.40;91.62
13033;BME280;6583;42.632;23.298;2023-05-12T08:44:07;70995.81;;;-146.40;90.05
13033;BME280;6583;42.632;23.298;2023-05-12T08:46:34;71007.97;;;-146.40;89.43
13033;BME280;6583;42.632;23.298;2023-05-12T08:49:01;70983.69;;;-146.40;90.61
13033;BME280;6583;42.632;23.298;2023-05-12T08:51:30;70973.56;;;-146.40;90.49
13033;BME280;6583;42.632;23.298;2023-05-12T08:53:59;70985.69;;;-146.40;88.94
13033;BME280;6583;42.632;23.298;2023-05-12T08:56:26;70993.78;;;-146.40;88.99
13033;BME280;6583;42.632;23.298;2023-05-12T08:58:53;70977.59;;;-146.40;89.24
13033;BME280;6583;42.632;23.298;2023-05-12T09:01:21;70963.44;;;-146.40;88.28
13033;BME280;6583;42.632;23.298;2023-05-12T09:03:50;70967.50;;;-146.40;89.18
13033;BME280;6583;42.632;23.298;2023-05-12T09:06:17;70951.31;;;-146.40;88.94
13033;BME280;6583;42.632;23.298;2023-05-12T09:08:44;70939.16;;;-146.40;87.43
13033;BME280;6583;42.632;23.298;2023-05-12T09:11:12;70922.97;;;-146.40;87.47
13033;BME280;6583;42.632;23.298;2023-05-12T09:13:44;70916.91;;;-146.40;86.47
13033;BME280;6583;42.632;23.298;2023-05-12T09:16:15;70914.88;;;-146.40;86.73
13033;BME280;6583;42.632;23.298;2023-05-12T09:18:47;70918.94;;;-146.40;85.59
13033;BME280;6583;42.632;23.298;2023-05-12T09:21:15;70912.84;;;-146.40;85.64
13033;BME280;6583;42.632;23.298;2023-05-12T09:23:51;70916.91;;;-146.40;85.49
13033;BME280;6583;42.632;23.298;2023-05-12T09:26:19;70920.94;;;-146.40;84.78
13033;BME280;6583;42.632;23.298;2023-05-12T09:28:47;70922.97;;;-146.40;85.20
13033;BME280;6583;42.632;23.298;2023-05-12T09:31:15;70931.06;;;-146.40;85.19
13033;BME280;6583;42.632;23.298;2023-05-12T09:33:41;70935.13;;;-146.40;85.63
13033;BME280;6583;42.632;23.298;2023-05-12T09:36:08;70914.88;;;-146.40;85.76
13033;BME280;6583;42.632;23.298;2023-05-12T09:38:35;70910.84;;;-146.40;85.76
13033;BME280;6583;42.632;23.298;2023-05-12T09:41:01;70914.88;;;-146.40;84.73
13033;BME280;6583;42.632;23.298;2023-05-12T09:43:29;70906.78;;;-146.40;84.77
13033;BME280;6583;42.632;23.298;2023-05-12T09:45:56;70914.88;;;-146.40;83.97
13033;BME280;6583;42.632;23.298;2023-05-12T09:48:22;70904.75;;;-146.40;84.74
13033;BME280;6583;42.632;23.298;2023-05-12T09:50:50;70890.59;;;-146.40;83.91
13033;BME280;6583;42.632;23.298;2023-05-12T09:53:18;70898.69;;;-146.40;84.21
13033;BME280;6583;42.632;23.298;2023-05-12T09:55:47;70874.41;;;-146.40;85.00
13033;BME280;6583;42.632;23.298;2023-05-12T09:58:15;70874.41;;;-146.40;84.36
13033;BME280;6583;42.632;23.298;2023-05-12T10:00:44;70866.31;;;-146.40;83.16
13033;BME280;6583;42.632;23.298;2023-05-12T10:03:13;70850.13;;;-146.40;82.60
13033;BME280;6583;42.632;23.298;2023-05-12T10:05:45;70854.19;;;-146.40;81.53
13033;BME280;6583;42.632;23.298;2023-05-12T10:08:16;70850.13;;;-146.40;82.49
13033;BME280;6583;42.632;23.298;2023-05-12T10:10:46;70833.94;;;-146.40;82.57
13033;BME280;6583;42.632;23.298;2023-05-12T10:13:15;70833.94;;;-146.40;81.68
13033;BME280;6583;42.632;23.298;2023-05-12T10:15:44;70821.81;;;-146.40;82.08
13033;BME280;6583;42.632;23.298;2023-05-12T10:18:12;70821.81;;;-146.40;80.47
13033;BME280;6583;42.632;23.298;2023-05-12T10:20:41;70809.66;;;-146.40;80.49
13033;BME280;6583;42.632;23.298;2023-05-12T10:23:09;70795.50;;;-146.40;80.91
13033;BME280;6583;42.632;23.298;2023-05-12T10:25:39;70781.34;;;-146.40;80.52
13033;BME280;6583;42.632;23.298;2023-05-12T10:28:07;70777.28;;;-146.40;79.05
13033;BME280;6583;42.632;23.298;2023-05-12T10:30:34;70773.25;;;-146.40;77.59
13033;BME280;6583;42.632;23.298;2023-05-12T10:33:03;70769.19;;;-146.40;76.62
13033;BME280;6583;42.632;23.298;2023-05-12T10:35:34;70753.00;;;-146.40;77.28
13033;BME280;6583;42.632;23.298;2023-05-12T10:38:04;70753.00;;;-146.40;76.30
13033;BME280;6583;42.632;23.298;2023-05-12T10:40:31;70757.06;;;-146.40;76.08
13033;BME280;6583;42.632;23.298;2023-05-12T10:42:58;70748.97;;;-146.40;77.25
13033;BME280;6583;42.632;23.298;2023-05-12T10:45:26;70736.81;;;-146.40;78.06
13033;BME280;6583;42.632;23.298;2023-05-12T10:48:05;70722.66;;;-146.40;75.83
13033;BME280;6583;42.632;23.298;2023-05-12T10:50:32;70732.78;;;-146.40;73.57
13033;BME280;6583;42.632;23.298;2023-05-12T10:52:59;70716.59;;;-146.40;74.30
13033;BME280;6583;42.632;23.298;2023-05-12T10:55:31;70716.59;;;-146.40;73.87
13033;BME280;6583;42.632;23.298;2023-05-12T10:58:09;70724.69;;;-146.40;73.18
13033;BME280;6583;42.632;23.298;2023-05-12T11:00:43;70728.72;;;-146.40;73.33
13033;BME280;6583;42.632;23.298;2023-05-12T11:03:15;70716.59;;;-146.40;73.69
13033;BME280;6583;42.632;23.298;2023-05-12T11:05:43;70698.38;;;-146.40;72.17
13033;BME280;6583;42.632;23.298;2023-05-12T11:08:11;70704.44;;;-146.40;70.78
13033;BME280;6583;42.632;23.298;2023-05-12T11:10:40;70700.41;;;-146.40;72.10
13033;BME280;6583;42.632;23.298;2023-05-12T11:13:08;70694.34;;;-146.40;71.11
13033;BME280;6583;42.632;23.298;2023-05-12T11:15:35;70688.25;;;-146.40;71.14
13033;BME280;6583;42.632;23.298;2023-05-12T11:18:02;70672.06;;;-146.40;71.24
13033;BME280;6583;42.632;23.298;2023-05-12T11:20:30;70684.22;;;-146.40;69.87
13033;BME280;6583;42.632;23.298;2023-05-12T11:22:57;70684.22;;;-146.40;69.83
13033;BME280;6583;42.632;23.298;2023-05-12T11:25:25;70686.25;;;-146.40;70.41
13033;BME280;6583;42.632;23.298;2023-05-12T11:27:52;70700.41;;;-146.40;69.63
13033;BME280;6583;42.632;23.298;2023-05-12T11:30:19;70700.41;;;-146.40;70.34
13033;BME280;6583;42.632;23.298;2023-05-12T11:32:58;70704.44;;;-146.40;70.45
13033;BME280;6583;42.632;23.298;2023-05-12T11:35:30;70710.50;;;-146.40;69.79
13033;BME280;6583;42.632;23.298;2023-05-12T11:37:57;70710.50;;;-146.40;70.29
13033;BME280;6583;42.632;23.298;2023-05-12T11:40:23;70698.38;;;-146.40;71.19
13033;BME280;6583;42.632;23.298;2023-05-12T11:42:50;70684.22;;;-146.40;70.76
13033;BME280;6583;42.632;23.298;2023-05-12T11:45:24;70684.22;;;-146.40;71.17
13033;BME280;6583;42.632;23.298;2023-05-12T11:47:51;70674.09;;;-146.40;69.70
13033;BME280;6583;42.632;23.298;2023-05-12T11:50:20;70672.06;;;-146.40;69.86
13033;BME280;6583;42.632;23.298;2023-05-12T11:52:49;70661.97;;;-146.40;70.86
13033;BME280;6583;42.632;23.298;2023-05-12T11:55:20;70643.75;;;-146.40;69.62
13033;BME280;6583;42.632;23.298;2023-05-12T11:57:57;70647.78;;;-146.40;68.27
13033;BME280;6583;42.632;23.298;2023-05-12T12:00:30;70631.59;;;-146.40;69.12
13033;BME280;6583;42.632;23.298;2023-05-12T12:03:11;70619.47;;;-146.40;69.02
13033;BME280;6583;42.632;23.298;2023-05-12T12:05:38;70613.41;;;-146.40;66.96
13033;BME280;6583;42.632;23.298;2023-05-12T12:08:09;70635.66;;;-146.40;67.63
13033;BME280;6583;42.632;23.298;2023-05-12T12:10:37;70617.44;;;-146.40;67.43
13033;BME280;6583;42.632;23.298;2023-05-12T12:13:03;70611.38;;;-146.40;68.66
13033;BME280;6583;42.632;23.298;2023-05-12T12:15:30;70605.31;;;-146.40;67.47
13033;BME280;6583;42.632;23.298;2023-05-12T12:17:57;70595.19;;;-146.40;67.60
13033;BME280;6583;42.632;23.298;2023-05-12T12:20:23;70607.31;;;-146.40;66.00
13033;BME280;6583;42.632;23.298;2023-05-12T12:22:51;70593.16;;;-146.40;66.38
13033;BME280;6583;42.632;23.298;2023-05-12T12:25:19;70617.44;;;-146.40;64.76
13033;BME280;6583;42.632;23.298;2023-05-12T12:27:46;70623.50;;;-146.40;63.83
13033;BME280;6583;42.632;23.298;2023-05-12T12:30:14;70623.50;;;-146.40;64.79
13033;BME280;6583;42.632;23.298;2023-05-12T12:32:41;70619.47;;;-146.40;64.53
13033;BME280;6583;42.632;23.298;2023-05-12T12:35:08;70627.56;;;-146.40;64.91
13033;BME280;6583;42.632;23.298;2023-05-12T12:37:36;70619.47;;;-146.40;63.49
13033;BME280;6583;42.632;23.298;2023-05-12T12:40:04;70619.47;;;-146.40;62.76
13033;BME280;6583;42.632;23.298;2023-05-12T12:42:34;70619.47;;;-146.40;63.59